KROC/ROC METAR and TAF weather

Enter ICAO airport designator
Station Type Date Time Source
KROC METAR 2020/09/19 04:54 UTC NOAA

KROC 190454Z 03005KT 10SM SCT060 10/00 A3033 RMK AO2 SLP275 T01000000 401500089 $


Station Type Date Time Source
KROC Decoded METAR 2020/09/19 04:54 UTC NOAA

GREATER ROCHESTER INTERNATIONAL , NY, United States (KROC) 43-07N 077-41W 178M
Sep 19, 2020 - 12:54 AM EDT / 2020.09.19 0454 UTC
Wind: from the NNE (030 degrees) at 6 MPH (5 KT):0
Visibility: 10 mile(s):0
Sky conditions: partly cloudy
Temperature: 50.0 F (10.0 C)
Dew Point: 32.0 F (0.0 C)
Relative Humidity: 49%
Pressure (altimeter): 30.33 in. Hg (1027 hPa)
ob: KROC 190454Z 03005KT 10SM SCT060 10/00 A3033 RMK AO2 SLP275 T01000000 401500089
cycle: 5

Station Type Date Time Source
KROC TAF 2020/09/19 03:51 UTC NOAA

TAF
AMD KROC 190248Z 1903/1924 36004KT P6SM BKN060
FM190800 VRB03KT P6SM FEW050
FM191500 02008KT P6SM SCT250

Example: see airport list